createdAt,value
2022-09-23T00:00:22.563Z,4147
2022-09-23T00:05:34.835Z,4151
2022-09-23T00:10:47.148Z,4164
2022-09-23T00:15:59.365Z,4162
2022-09-23T00:21:11.694Z,4162
2022-09-23T00:26:24.012Z,4153
2022-09-23T00:31:36.427Z,4160
2022-09-23T00:36:48.782Z,4144
2022-09-23T00:42:01.088Z,4132
2022-09-23T00:47:13.507Z,4162
2022-09-23T00:52:25.956Z,4160
2022-09-23T00:57:38.207Z,4160
2022-09-23T01:02:50.692Z,4145
2022-09-23T01:08:02.880Z,4158
2022-09-23T01:13:15.632Z,4140
2022-09-23T01:18:27.964Z,4155
2022-09-23T01:23:40.312Z,4134
2022-09-23T01:28:52.830Z,4144
2022-09-23T01:34:05.035Z,4155
2022-09-23T01:39:17.394Z,4157
2022-09-23T01:44:29.997Z,4153
2022-09-23T01:49:42.412Z,4138
2022-09-23T01:54:54.697Z,4153
2022-09-23T02:00:06.968Z,4147
2022-09-23T02:05:19.279Z,4125
2022-09-23T02:10:31.533Z,4145
2022-09-23T02:15:43.727Z,4149
2022-09-23T02:20:56.049Z,4129
2022-09-23T02:26:08.431Z,4093
2022-09-23T02:31:20.869Z,4112
2022-09-23T02:36:33.222Z,4101
2022-09-23T02:41:45.501Z,4106
2022-09-23T02:46:57.882Z,4097
2022-09-23T02:57:22.839Z,4105
2022-09-23T03:02:35.306Z,4060
2022-09-23T03:07:47.767Z,4131
2022-09-23T03:13:00.217Z,4106
2022-09-23T03:18:12.323Z,4103
2022-09-23T03:23:24.762Z,4118
2022-09-23T03:28:36.989Z,4138
2022-09-23T03:33:49.381Z,4118
2022-09-23T03:39:01.828Z,4077
2022-09-23T03:44:14.171Z,4092
2022-09-23T03:49:26.560Z,4093
2022-09-23T03:54:38.885Z,4069
2022-09-23T03:59:51.346Z,4051
2022-09-23T04:05:03.505Z,4116
2022-09-23T04:10:16.045Z,4095
2022-09-23T04:15:28.512Z,4082
2022-09-23T04:20:41.033Z,4116
2022-09-23T04:25:53.340Z,4116
2022-09-23T04:31:06.069Z,4095
2022-09-23T04:36:18.197Z,4045
2022-09-23T04:41:30.615Z,4049
2022-09-23T04:46:43.118Z,4092
2022-09-23T04:51:55.474Z,4093
2022-09-23T04:57:07.790Z,4047
2022-09-23T05:02:20.369Z,4043
2022-09-23T05:07:32.652Z,4112
2022-09-23T05:12:45.229Z,4054
2022-09-23T05:17:57.644Z,4108
2022-09-23T05:23:10.028Z,4090
2022-09-23T05:28:22.675Z,4114
2022-09-23T05:33:35.099Z,4108
2022-09-23T05:38:47.507Z,4097
2022-09-23T05:43:59.826Z,4101
2022-09-23T05:49:12.306Z,4084
2022-09-23T05:54:24.769Z,4121
2022-09-23T05:59:36.991Z,4084
2022-09-23T06:04:49.347Z,4090
2022-09-23T06:10:01.631Z,4078
2022-09-23T06:15:14.013Z,4075
2022-09-23T06:20:26.486Z,4086
2022-09-23T06:25:38.912Z,4112
2022-09-23T06:30:51.469Z,4067
2022-09-23T06:36:04.166Z,4116
2022-09-23T06:41:16.703Z,4065
2022-09-23T06:46:28.964Z,4108
2022-09-23T06:51:41.277Z,4132
2022-09-23T06:56:53.663Z,4116
2022-09-23T07:02:06.198Z,4103
2022-09-23T07:07:18.673Z,4116
2022-09-23T07:12:31.257Z,4049
2022-09-23T07:17:43.801Z,4097
2022-09-23T07:22:56.350Z,4134
2022-09-23T07:28:08.723Z,4073
2022-09-23T07:33:31.282Z,4134
2022-09-23T07:38:33.576Z,4136
2022-09-23T07:43:45.831Z,4118
2022-09-23T07:48:58.162Z,4101
2022-09-23T07:54:10.708Z,4088
2022-09-23T07:59:23.094Z,4136
2022-09-23T08:04:35.319Z,4132
2022-09-23T08:09:48.081Z,4077
2022-09-23T08:15:00.467Z,4069
2022-09-23T08:20:12.714Z,4086
2022-09-23T08:25:25.153Z,4112
2022-09-23T08:30:37.677Z,4099
2022-09-23T08:35:49.873Z,4119
2022-09-23T08:41:02.241Z,4129
2022-09-23T08:46:14.644Z,4131
2022-09-23T08:51:27.027Z,4101
2022-09-23T08:56:39.282Z,4108
2022-09-23T09:01:51.672Z,4119
2022-09-23T09:07:24.844Z,4158
2022-09-23T09:12:16.655Z,4138
2022-09-23T09:17:32.984Z,4125
2022-09-23T09:22:41.698Z,4119
2022-09-23T09:27:56.144Z,4145
2022-09-23T09:33:06.552Z,4153
2022-09-23T09:38:19.071Z,4171
2022-09-23T09:43:32.313Z,4164
2022-09-23T09:48:43.636Z,4171
2022-09-23T09:53:56.006Z,4144
2022-09-23T09:59:08.389Z,4175
2022-09-23T10:04:21.017Z,4162
2022-09-23T10:09:33.375Z,4153
2022-09-23T10:14:45.726Z,4186
2022-09-23T10:19:58.020Z,4173
2022-09-23T10:25:10.556Z,4190
2022-09-23T10:30:23.009Z,4188
2022-09-23T10:35:35.493Z,4203
2022-09-23T10:40:47.906Z,4207
2022-09-23T10:46:00.567Z,4203
2022-09-23T10:51:12.898Z,4216
2022-09-23T10:56:25.105Z,4211
2022-09-23T11:01:38.375Z,4205
2022-09-23T11:06:50.793Z,4212
2022-09-23T11:12:03.271Z,4214
2022-09-23T11:17:15.772Z,4211
2022-09-23T11:22:28.057Z,4216
2022-09-23T11:27:40.281Z,4220
2022-09-23T11:32:52.858Z,4201
2022-09-23T11:38:05.093Z,4147
2022-09-23T11:43:17.367Z,4209
2022-09-23T11:48:29.925Z,4212
2022-09-23T11:53:42.054Z,4194
2022-09-23T11:58:57.775Z,4220
2022-09-23T12:04:16.147Z,4225
2022-09-23T12:09:27.210Z,4231
2022-09-23T12:14:31.831Z,4229
2022-09-23T12:19:44.326Z,4222
2022-09-23T12:24:56.635Z,4227
2022-09-23T12:30:08.844Z,4235
2022-09-23T12:35:21.453Z,4238
2022-09-23T12:40:34.031Z,4244
2022-09-23T12:45:46.428Z,4237
2022-09-23T12:50:58.914Z,4246
2022-09-23T12:56:11.213Z,4244
2022-09-23T13:01:23.759Z,4246
2022-09-23T13:06:35.884Z,4175
2022-09-23T13:11:48.414Z,4246
2022-09-23T13:17:00.921Z,4248
2022-09-23T13:22:12.966Z,4248
2022-09-23T13:27:25.284Z,4227
2022-09-23T13:32:37.689Z,4237
2022-09-23T13:37:50.260Z,4231
2022-09-23T13:43:02.403Z,4253
2022-09-23T13:48:14.772Z,4231
2022-09-23T13:53:27.232Z,4246
2022-09-23T13:58:39.400Z,4237
2022-09-23T14:03:51.540Z,4253
2022-09-23T14:09:03.673Z,4237
2022-09-23T14:14:16.027Z,4242
2022-09-23T14:19:27.893Z,4246
2022-09-23T14:24:40.253Z,4244
2022-09-23T14:29:52.553Z,4235
2022-09-23T14:35:05.038Z,4235
2022-09-23T14:40:17.869Z,4229
2022-09-23T14:45:30.392Z,4242
2022-09-23T14:50:42.530Z,4240
2022-09-23T14:55:54.884Z,4222
2022-09-23T15:01:07.125Z,4227
2022-09-23T15:06:19.508Z,4214
2022-09-23T15:11:31.873Z,4227
2022-09-23T15:16:44.437Z,4229
2022-09-23T15:21:56.608Z,4227
2022-09-23T15:27:09.017Z,4214
2022-09-23T15:32:21.339Z,4199
2022-09-23T15:37:36.250Z,4207
2022-09-23T15:42:46.310Z,4222
2022-09-23T15:47:58.608Z,4212
2022-09-23T15:53:10.961Z,4198
2022-09-23T15:58:23.241Z,4218
2022-09-23T16:03:35.496Z,4216
2022-09-23T16:08:47.933Z,4218
2022-09-23T16:14:00.388Z,4218
2022-09-23T16:19:12.683Z,4203
2022-09-23T16:24:28.126Z,4198
2022-09-23T16:29:37.357Z,4216
2022-09-23T16:34:49.452Z,4216
2022-09-23T16:45:13.800Z,4192
2022-09-23T16:50:26.083Z,4199
2022-09-23T16:55:38.384Z,4218
2022-09-23T17:00:50.941Z,4196
2022-09-23T17:06:07.324Z,4205
2022-09-23T17:11:15.520Z,4192
2022-09-23T17:16:27.867Z,4214
2022-09-23T17:21:39.943Z,4212
2022-09-23T17:26:53.342Z,4199
2022-09-23T17:32:04.803Z,4171
2022-09-23T17:37:16.904Z,4205
2022-09-23T17:42:29.354Z,4158
2022-09-23T17:47:42.042Z,4185
2022-09-23T17:52:54.298Z,4171
2022-09-23T17:58:06.630Z,4171
2022-09-23T18:03:18.980Z,4158
2022-09-23T18:08:31.255Z,4188
2022-09-23T18:13:43.480Z,4179
2022-09-23T18:18:56.035Z,4153
2022-09-23T18:24:31.109Z,4183
2022-09-23T18:29:20.653Z,4199
2022-09-23T18:34:33.109Z,4175
2022-09-23T18:39:45.428Z,4188
2022-09-23T18:44:57.944Z,4168
2022-09-23T18:50:10.392Z,4186
2022-09-23T18:55:22.895Z,4144
2022-09-23T19:00:35.451Z,4198
2022-09-23T19:05:47.651Z,4185
2022-09-23T19:11:00.280Z,4183
2022-09-23T19:16:12.564Z,4151
2022-09-23T19:21:25.189Z,4183
2022-09-23T19:26:37.950Z,4183
2022-09-23T19:31:50.382Z,4157
2022-09-23T19:37:02.838Z,4144
2022-09-23T19:42:15.318Z,4188
2022-09-23T19:47:27.688Z,4142
2022-09-23T19:52:39.911Z,4170
2022-09-23T19:57:52.901Z,4194
2022-09-23T20:03:05.106Z,4123
2022-09-23T20:08:17.572Z,4142
2022-09-23T20:13:30.284Z,4177
2022-09-23T20:18:42.700Z,4138
2022-09-23T20:23:55.165Z,4157
2022-09-23T20:29:07.642Z,4151
2022-09-23T20:34:20.496Z,4155
2022-09-23T20:39:32.944Z,4151
2022-09-23T20:44:45.242Z,4160
2022-09-23T20:49:57.791Z,4145
2022-09-23T20:55:10.237Z,4175
2022-09-23T21:00:22.729Z,4173
2022-09-23T21:05:35.170Z,4170
2022-09-23T21:10:47.823Z,4164
2022-09-23T21:16:00.138Z,4164
2022-09-23T21:21:12.439Z,4186
2022-09-23T21:26:24.795Z,4181
2022-09-23T21:31:37.046Z,4157
2022-09-23T21:36:49.409Z,4185
2022-09-23T21:42:01.709Z,4186
2022-09-23T21:47:14.218Z,4144
2022-09-23T21:52:26.489Z,4185
2022-09-23T21:57:38.978Z,4177
2022-09-23T22:02:51.253Z,4181
2022-09-23T22:08:03.496Z,4171
2022-09-23T22:13:16.209Z,4142
2022-09-23T22:18:28.549Z,4185
2022-09-23T22:23:40.926Z,4168
2022-09-23T22:28:53.446Z,4166
2022-09-23T22:34:05.669Z,4170
2022-09-23T22:39:17.897Z,4158
2022-09-23T22:44:30.239Z,4177
2022-09-23T22:49:42.751Z,4168
2022-09-23T22:54:55.076Z,4177
2022-09-23T23:00:07.384Z,4179
2022-09-23T23:05:19.944Z,4177
2022-09-23T23:10:32.360Z,4155
2022-09-23T23:15:44.731Z,4181
2022-09-23T23:20:56.888Z,4179
2022-09-23T23:26:09.894Z,4179
2022-09-23T23:31:21.542Z,4177
2022-09-23T23:36:33.658Z,4179
2022-09-23T23:41:46.104Z,4177
2022-09-23T23:46:58.611Z,4170
2022-09-23T23:52:11.149Z,4136
2022-09-23T23:57:23.361Z,4160
